Terminal Aerodrome Forecast
Issued by NWS

Home | Current Version | Previous Version | Text Only | Print | Product List | Glossary On
Versions: 1 2 3 4 5 6 7 8 9 10 11 12 13 14
000
FTPA31 PHFO 262332
TAFHOG
TAF
PHOG 262332Z 2700/2724 06017G25KT P6SM FEW030 SCT050
     FM270500 06010G15KT P6SM FEW030 SCT050
     FM270700 06007KT P6SM FEW030
     FM271200 14005KT P6SM FEW030
     FM272000 08011G16KT P6SM FEW030 SCT050=

USA.gov is the U.S. government's official web portal to all federal, state and local government web resources and services.